• Join FlightAware (Why Join?)
  • Login
  • US Flag 
03:01AM EDT


 

Airport Tracker/Info


-or-


 

Live Flight TrackerFlight Track Log ✈ TYR772 ✈ 22-Apr-2013 ✈ LYBE / BEG - LOWW / VIE

Flight Track Log - Related Links

Times and Time Zones

All times are in EDT time to prevent confusion due to time zone crossing. See the TYR772 flight status page for this flight to view local times or setup timezone preferences in your user account.

Time Position Orientation Groundspeed Altitude Reporting Facility
EDT Latitude Longitude Course Direction KTS MPH feet Rate Location/Type
02:21AM 45.0233 20.0928 323° Northwest  Level Estimated
02:22AM 45.0916 20.0204 323° Northwest  Level Estimated
02:23AM 45.1597 19.9478 323° Northwest  Level Estimated
02:24AM 45.2278 19.8750 323° Northwest  Level Estimated
02:25AM 45.2959 19.8020 323° Northwest  Level Estimated
02:26AM 45.3639 19.7289 323° Northwest  Level Estimated
02:27AM 45.4319 19.6556 323° Northwest  Level Estimated
02:28AM 45.4998 19.5821 323° Northwest  Level Estimated
02:29AM 45.5677 19.5084 323° Northwest  Level Estimated
02:30AM 45.6356 19.4346 323° Northwest  Level Estimated
02:31AM 45.7034 19.3606 323° Northwest  Level Estimated
02:32AM 45.7711 19.2864 323° Northwest  Level Estimated
02:33AM 45.8388 19.2120 323° Northwest  Level Estimated
02:34AM 45.9064 19.1374 323° Northwest  Level Estimated
02:35AM 45.9740 19.0627 322° Northwest  Level Estimated
02:36AM 46.0416 18.9877 322° Northwest  Level Estimated
02:37AM 46.1091 18.9126 322° Northwest  Level Estimated
02:38AM 46.1765 18.8373 322° Northwest  Level Estimated
02:39AM 46.2439 18.7619 322° Northwest  Level Estimated
02:40AM 46.3113 18.6862 322° Northwest  Level Estimated
02:41AM 46.3786 18.6103 322° Northwest  Level Estimated
02:42AM 46.4458 18.5343 322° Northwest  Level Estimated
02:43AM 46.5130 18.4580 322° Northwest  Level Estimated
02:44AM 46.5802 18.3816 322° Northwest  Level Estimated
02:45AM 46.6473 18.3050 322° Northwest  Level Estimated
02:46AM 46.7143 18.2282 322° Northwest  Level Estimated
02:47AM 46.7813 18.1512 322° Northwest  Level Estimated
02:48AM 46.8482 18.0741 322° Northwest  Level Estimated
02:49AM 46.9151 17.9967 322° Northwest  Level Estimated
02:50AM 46.9820 17.9191 322° Northwest  Level Estimated
02:51AM 47.0488 17.8414 322° Northwest  Level Estimated
02:52AM 47.1155 17.7634 322° Northwest  Level Estimated
02:53AM 47.1822 17.6852 321° Northwest  Level Estimated
02:54AM 47.2488 17.6069 321° Northwest  Level Estimated
02:55AM 47.3154 17.5283 321° Northwest  Level Estimated
02:56AM 47.3819 17.4496 321° Northwest  Level Estimated
02:57AM 47.4483 17.3707 321° Northwest  Level Estimated
02:58AM 47.5148 17.2915 321° Northwest  Level Estimated
02:59AM 47.5811 17.2122 321° Northwest  Level Estimated
03:00AM 47.6474 17.1326 321° Northwest  Level Estimated
03:01AM 47.7137 17.0529 321° Northwest  Level Estimated
03:02AM 47.7799 16.9729 321° Northwest  Level Estimated
03:03AM 47.8460 16.8928 321° Northwest  Level Estimated
03:04AM 47.9121 16.8124 321° Northwest  Level Estimated
03:05AM 47.9781 16.7319 321° Northwest  Level Estimated
03:06AM 48.0440 16.6511 321° Northwest  Level Estimated
03:07AM 48.1100 16.5701 321° Northwest  Level Estimated
03:08AM 48.1103 16.5697 320° Northwest  Level Estimated
03:09AM 48.1103 16.5697 146° Southeast  Level Estimated
03:10AM 48.1103 16.5697 146° Southeast  Level Estimated
03:11AM 48.1103 16.5697 146° Southeast  Level Estimated
03:12AM 48.1103 16.5697 146° Southeast  Level Estimated
03:13AM 48.1103 16.5697 146° Southeast  Level Estimated
03:14AM 48.1103 16.5697 146° Southeast  Level Estimated